Time;durP1;ratioP1;P1;durP2;ratioP2;P2;SDS_P1;SDS_P2;PMS_P1;PMS_P2;Temp;Humidity;BMP_temperature;BMP_pressure;BME280_temperature;BME280_humidity;BME280_pressure;Samples;Min_cycle;Max_cycle;Signal;HPM_P1;HPM_P2
2023/01/13 15:47:09;;;;;;;8.48;2.47;;;8.50;99.90;;;;;;5088985;28;20174;-67
2023/01/13 15:49:41;;;;;;;10.20;1.92;;;8.60;99.90;;;;;;5087569;28;20039;-69
2023/01/13 15:52:17;;;;;;;10.13;2.35;;;8.60;99.90;;;;;;5088116;28;20094;-68
2023/01/13 15:54:43;;;;;;;11.88;2.53;;;8.60;99.90;;;;;;5088430;28;20085;-67
2023/01/13 15:57:18;;;;;;;12.80;2.83;;;8.70;99.90;;;;;;5088216;28;20114;-68
2023/01/13 15:59:44;;;;;;;15.48;3.47;;;8.70;99.90;;;;;;5083315;28;20032;-66
2023/01/13 16:02:17;;;;;;;9.38;1.92;;;8.80;99.90;;;;;;5077026;28;20024;-66
2023/01/13 16:04:45;;;;;;;9.48;2.30;;;8.80;99.90;;;;;;5068611;28;20017;-67
2023/01/13 16:07:16;;;;;;;9.13;2.20;;;8.80;99.90;;;;;;5079903;28;20071;-65
2023/01/13 16:09:43;;;;;;;6.38;1.67;;;8.90;99.90;;;;;;5083289;28;20023;-65
2023/01/13 16:12:10;;;;;;;11.90;2.13;;;8.90;99.90;;;;;;5088026;28;20073;-68
2023/01/13 16:14:35;;;;;;;10.95;2.05;;;9.00;99.90;;;;;;5081334;28;20025;-68
2023/01/13 16:17:10;;;;;;;7.55;1.90;;;8.90;99.90;;;;;;5078296;28;20460;-68
2023/01/13 16:19:36;;;;;;;7.65;1.83;;;8.90;99.90;;;;;;5067358;28;20032;-66
2023/01/13 16:22:01;;;;;;;12.07;2.50;;;8.80;99.90;;;;;;5078352;28;20035;-65
2023/01/13 16:24:27;;;;;;;7.68;1.63;;;8.80;99.90;;;;;;5082834;28;20436;-66
2023/01/13 16:26:53;;;;;;;13.18;2.20;;;8.80;99.90;;;;;;5084945;28;20030;-66
2023/01/13 16:29:18;;;;;;;11.27;2.53;;;8.70;99.90;;;;;;5081735;28;20028;-67
2023/01/13 16:31:47;;;;;;;16.75;2.20;;;8.70;99.90;;;;;;5078593;28;20032;-68
2023/01/13 16:34:13;;;;;;;13.45;2.58;;;8.60;99.90;;;;;;5048424;28;20024;-69
2023/01/13 16:36:39;;;;;;;10.30;1.50;;;8.60;99.90;;;;;;5054878;28;20040;-69
2023/01/13 16:39:22;;;;;;;7.85;2.00;;;8.60;99.90;;;;;;5084073;28;20074;-69
2023/01/13 16:41:50;;;;;;;14.50;2.15;;;8.60;99.90;;;;;;5069321;28;20105;-70
2023/01/13 16:44:16;;;;;;;10.63;2.33;;;8.60;99.90;;;;;;5068715;28;20098;-70
2023/01/13 16:46:46;;;;;;;15.23;2.63;;;8.70;99.90;;;;;;5069158;28;20020;-70
2023/01/13 16:49:14;;;;;;;11.90;2.25;;;8.60;99.90;;;;;;5087772;28;20365;-71
2023/01/13 16:51:40;;;;;;;12.43;2.13;;;8.60;99.90;;;;;;5080514;28;20035;-70
2023/01/13 16:54:06;;;;;;;12.05;2.42;;;8.60;99.90;;;;;;5074593;28;20024;-70
2023/01/13 16:56:35;;;;;;;8.15;1.90;;;8.60;99.90;;;;;;5073315;28;20408;-70
2023/01/13 16:59:12;;;;;;;16.25;2.22;;;8.60;99.90;;;;;;5055373;28;20488;-71
2023/01/13 17:01:47;;;;;;;10.30;2.47;;;8.60;99.90;;;;;;5055719;28;20098;-70
2023/01/13 17:04:18;;;;;;;17.38;2.53;;;8.70;99.90;;;;;;5056097;28;20085;-70
2023/01/13 17:06:53;;;;;;;8.85;2.22;;;8.70;99.90;;;;;;5038523;28;20060;-68
2023/01/13 17:09:24;;;;;;;8.63;1.90;;;8.60;99.90;;;;;;5061800;28;20723;-70
2023/01/13 17:11:50;;;;;;;;;;;8.60;99.90;;;;;;5055479;28;20119;-66
2023/01/13 17:14:17;;;;;;;8.80;1.85;;;8.60;99.90;;;;;;5069543;28;19988;-70
2023/01/13 17:16:43;;;;;;;8.18;2.42;;;8.60;99.90;;;;;;5072525;28;20040;-67
2023/01/13 17:19:09;;;;;;;7.47;1.88;;;8.50;99.90;;;;;;5070826;28;20021;-67
2023/01/13 17:21:35;;;;;;;7.90;1.90;;;8.50;99.90;;;;;;5070320;28;20051;-69
2023/01/13 17:24:04;;;;;;;23.73;4.38;;;8.60;99.90;;;;;;5067754;28;20048;-71
2023/01/13 17:26:36;;;;;;;13.60;3.42;;;8.60;99.90;;;;;;5051817;28;20032;-71
2023/01/13 17:29:05;;;;;;;14.15;3.30;;;8.60;99.90;;;;;;5053994;28;20059;-74
2023/01/13 17:31:30;;;;;;;10.38;2.38;;;8.70;99.90;;;;;;5057654;28;20422;-73
2023/01/13 17:33:56;;;;;;;10.07;2.35;;;8.70;99.90;;;;;;5071268;28;20082;-69
2023/01/13 17:36:22;;;;;;;10.13;2.40;;;8.60;99.90;;;;;;5053471;28;20029;-70
2023/01/13 17:38:48;;;;;;;7.00;2.40;;;8.50;99.90;;;;;;5052304;28;20104;-71
2023/01/13 17:41:13;;;;;;;17.15;3.38;;;8.40;99.90;;;;;;5070006;28;20131;-70
2023/01/13 17:43:39;;;;;;;9.73;1.80;;;8.30;99.90;;;;;;5087576;28;20055;-69
2023/01/13 17:46:12;;;;;;;6.43;2.03;;;8.20;99.90;;;;;;5071008;28;20124;-69
2023/01/13 17:48:38;;;;;;;7.53;2.58;;;7.90;99.90;;;;;;5053498;28;20048;-68
2023/01/13 17:51:09;;;;;;;7.28;1.67;;;7.70;99.90;;;;;;5070555;28;20068;-71
2023/01/13 17:53:39;;;;;;;6.28;1.40;;;7.50;99.90;;;;;;5071033;28;20054;-68
2023/01/13 17:56:06;;;;;;;7.78;2.22;;;7.30;99.90;;;;;;5054283;28;20025;-66
2023/01/13 17:58:31;;;;;;;4.35;1.70;;;7.20;99.90;;;;;;5051146;28;20036;-69
2023/01/13 18:00:57;;;;;;;4.95;1.40;;;7.10;99.90;;;;;;5067314;28;20029;-69
2023/01/13 18:03:23;;;;;;;4.57;1.27;;;7.00;99.90;;;;;;5070740;28;20020;-65
2023/01/13 18:05:48;;;;;;;5.78;1.38;;;7.00;99.90;;;;;;5070206;28;20467;-68
2023/01/13 18:08:14;;;;;;;2.58;1.25;;;7.00;99.90;;;;;;5062765;28;20079;-71
2023/01/13 18:10:40;;;;;;;2.22;0.93;;;7.00;99.90;;;;;;5050873;28;20033;-70
2023/01/13 18:13:05;;;;;;;2.17;1.00;;;7.10;99.90;;;;;;5052176;28;20414;-65
2023/01/13 18:15:31;;;;;;;2.25;0.73;;;7.10;99.90;;;;;;5068118;28;20047;-69
2023/01/13 18:17:57;;;;;;;4.07;0.90;;;7.10;99.90;;;;;;5070885;28;20024;-68
2023/01/13 18:29:01;;;;;;;3.20;1.27;;;6.80;99.90;;;;;;5068076;28;20416;-67
2023/01/13 18:31:26;;;;;;;1.27;1.00;;;6.60;99.90;;;;;;5068093;28;20040;-69
2023/01/13 18:33:52;;;;;;;4.15;1.20;;;6.50;99.90;;;;;;5051618;28;20075;-68
2023/01/13 18:36:18;;;;;;;2.70;1.13;;;6.40;99.90;;;;;;5051833;28;20021;-70
2023/01/13 18:38:43;;;;;;;4.63;1.02;;;6.30;99.90;;;;;;5051885;28;20067;-68
2023/01/13 18:42:50;;;;;;;3.83;1.15;;;6.30;99.90;;;;;;5036184;28;20048;-66
2023/01/13 18:43:54;;;;;;;2.17;1.30;;;6.30;99.90;;;;;;5051184;28;20021;-64
2023/01/13 18:46:20;;;;;;;2.22;1.10;;;6.20;99.90;;;;;;5049855;28;20098;-67
2023/01/13 18:48:46;;;;;;;2.08;1.33;;;6.20;99.90;;;;;;5050289;28;20010;-71
2023/01/13 18:51:12;;;;;;;2.13;0.90;;;6.10;99.90;;;;;;5049981;28;20040;-69
2023/01/13 18:53:37;;;;;;;2.58;1.20;;;6.10;99.90;;;;;;5050336;28;20477;-70
2023/01/13 18:56:08;;;;;;;4.05;1.30;;;6.20;99.90;;;;;;5051802;28;20025;-66
2023/01/13 18:58:34;;;;;;;5.00;1.58;;;6.10;99.90;;;;;;5033714;28;20723;-70
2023/01/13 19:01:04;;;;;;;11.15;1.55;;;6.10;99.90;;;;;;5036486;28;20033;-70
2023/01/13 19:03:29;;;;;;;9.43;2.15;;;6.20;99.90;;;;;;5031156;28;20017;-70
2023/01/13 19:06:01;;;;;;;7.60;1.67;;;6.20;99.90;;;;;;5031197;28;20485;-72
2023/01/13 19:08:27;;;;;;;8.85;1.90;;;6.20;99.90;;;;;;5046877;28;20029;-69
2023/01/13 19:10:52;;;;;;;5.78;1.70;;;6.30;99.90;;;;;;5030352;28;20040;-70
2023/01/13 19:13:18;;;;;;;5.85;2.08;;;6.30;99.90;;;;;;5032436;28;20021;-69
2023/01/13 19:15:43;;;;;;;7.55;2.10;;;6.40;99.90;;;;;;5047594;28;20025;-70
2023/01/13 19:18:09;;;;;;;6.38;2.03;;;6.40;99.90;;;;;;5051053;28;20022;-69
2023/01/13 19:20:36;;;;;;;5.00;2.33;;;6.40;99.90;;;;;;5036556;28;20450;-69
2023/01/13 19:23:02;;;;;;;9.43;1.92;;;6.50;99.90;;;;;;5017541;28;20488;-69
2023/01/13 19:25:29;;;;;;;6.22;1.98;;;6.40;99.90;;;;;;5043185;28;20096;-67
2023/01/13 19:27:55;;;;;;;8.02;1.75;;;6.40;99.90;;;;;;5038628;28;20106;-66
2023/01/13 19:30:21;;;;;;;6.05;1.80;;;6.50;99.90;;;;;;5030749;28;20116;-70
2023/01/13 19:32:46;;;;;;;9.80;1.73;;;6.50;99.90;;;;;;5030993;28;20462;-71
2023/01/13 19:35:16;;;;;;;6.53;1.83;;;6.50;99.90;;;;;;5030916;28;20026;-70
2023/01/13 19:37:42;;;;;;;4.53;1.60;;;6.50;99.90;;;;;;5031026;28;20040;-70
2023/01/13 19:40:09;;;;;;;4.18;1.65;;;6.50;99.90;;;;;;5021331;28;20045;-70
2023/01/13 19:45:25;;;;;;;6.15;1.60;;;6.60;99.90;;;;;;5050568;28;20090;-71
2023/01/13 19:47:51;;;;;;;4.53;1.38;;;6.60;99.90;;;;;;5050028;28;20470;-71
2023/01/13 19:50:16;;;;;;;3.17;1.25;;;6.60;99.90;;;;;;5035316;28;20087;-70
2023/01/13 19:52:42;;;;;;;5.43;1.48;;;6.60;99.90;;;;;;5030267;28;20021;-72
2023/01/13 19:55:11;;;;;;;2.42;1.25;;;6.70;99.90;;;;;;5031388;28;20021;-72
2023/01/13 19:57:37;;;;;;;4.25;1.52;;;6.60;99.90;;;;;;5044367;28;20036;-72
2023/01/13 20:00:05;;;;;;;6.07;1.55;;;6.60;99.90;;;;;;5036123;28;20022;-72
2023/01/13 20:02:31;;;;;;;3.15;1.23;;;6.60;99.90;;;;;;5048469;28;20766;-73
2023/01/13 20:05:02;;;;;;;9.00;1.90;;;6.60;99.90;;;;;;5038784;28;20529;-71
2023/01/13 20:07:29;;;;;;;7.80;1.42;;;6.60;99.90;;;;;;5030859;28;20040;-72
2023/01/13 20:09:55;;;;;;;2.85;1.20;;;6.60;99.90;;;;;;5042954;28;20037;-72
2023/01/13 20:12:21;;;;;;;4.88;1.67;;;6.60;99.90;;;;;;5049613;28;20025;-72
2023/01/13 20:14:48;;;;;;;8.38;1.40;;;6.60;99.90;;;;;;5049901;28;20013;-72
2023/01/13 20:17:16;;;;;;;3.95;1.30;;;6.70;99.90;;;;;;5046850;28;20033;-71
2023/01/13 20:19:42;;;;;;;6.22;1.98;;;6.70;99.90;;;;;;5012948;28;20021;-72
2023/01/13 20:22:08;;;;;;;4.70;1.38;;;6.70;99.90;;;;;;5030198;28;20036;-70
2023/01/13 20:24:34;;;;;;;4.75;1.45;;;6.70;99.90;;;;;;5044089;28;20041;-71
2023/01/13 20:27:00;;;;;;;4.57;1.27;;;6.80;99.90;;;;;;5034799;28;20009;-72
2023/01/13 20:29:26;;;;;;;6.20;1.42;;;6.90;99.90;;;;;;5053931;28;20031;-71
2023/01/13 20:31:53;;;;;;;4.63;1.20;;;6.80;99.90;;;;;;5049731;28;20117;-70
2023/01/13 20:34:19;;;;;;;7.05;1.20;;;6.80;99.90;;;;;;5034079;28;20017;-71
2023/01/13 20:36:47;;;;;;;7.38;1.98;;;6.80;99.90;;;;;;5033820;28;20104;-71
2023/01/13 20:39:16;;;;;;;6.65;1.60;;;6.80;99.90;;;;;;5035054;28;20025;-71
2023/01/13 20:44:26;;;;;;;7.85;1.65;;;6.80;99.90;;;;;;5073284;28;20444;-71
2023/01/13 20:46:53;;;;;;;6.05;1.75;;;6.90;99.90;;;;;;5058536;28;20497;-70
2023/01/13 20:49:20;;;;;;;9.77;1.35;;;7.00;99.90;;;;;;5040991;28;20029;-71
2023/01/13 20:51:46;;;;;;;4.10;1.63;;;6.90;99.90;;;;;;5035127;28;20032;-71
2023/01/13 20:54:13;;;;;;;4.60;1.38;;;6.80;99.90;;;;;;5053598;28;20028;-72
2023/01/13 20:56:39;;;;;;;3.90;1.50;;;6.80;99.90;;;;;;5054150;28;20096;-71
2023/01/13 20:59:05;;;;;;;6.55;1.40;;;6.70;99.90;;;;;;5053909;28;20104;-71
2023/01/13 21:01:32;;;;;;;5.15;1.65;;;6.70;99.90;;;;;;5051170;28;20082;-71
2023/01/13 21:03:58;;;;;;;5.88;1.67;;;6.70;99.90;;;;;;5053964;28;20021;-70
2023/01/13 21:06:25;;;;;;;2.92;1.48;;;6.70;99.90;;;;;;5052237;28;20100;-71
2023/01/13 21:08:53;;;;;;;6.05;1.60;;;6.70;99.90;;;;;;5043824;28;20025;-70
2023/01/13 21:19:54;;;;;;;9.00;1.90;;;6.90;99.90;;;;;;5032782;28;20120;-71
2023/01/13 21:22:20;;;;;;;4.53;1.30;;;6.90;99.90;;;;;;5033711;28;20029;-72
2023/01/13 21:24:45;;;;;;;5.70;1.67;;;7.00;99.90;;;;;;5045273;28;20035;-71
2023/01/13 21:27:11;;;;;;;3.75;1.10;;;7.10;99.90;;;;;;5052451;28;20029;-71
2023/01/13 21:29:37;;;;;;;1.85;1.17;;;7.10;99.90;;;;;;5052301;28;20481;-71
2023/01/13 21:32:02;;;;;;;3.88;1.30;;;7.10;99.90;;;;;;5053034;28;20057;-72
2023/01/13 21:34:28;;;;;;;4.30;1.02;;;7.20;99.90;;;;;;5052297;28;20601;-71
2023/01/13 21:36:53;;;;;;;5.10;1.50;;;7.10;99.90;;;;;;5048106;28;20033;-71
2023/01/13 21:39:19;;;;;;;4.43;1.77;;;7.10;99.90;;;;;;5054083;28;20021;-71
2023/01/13 21:50:06;;;;;;;4.95;1.65;;;6.70;99.90;;;;;;5072702;28;20043;-72
2023/01/13 21:52:31;;;;;;;5.50;1.55;;;6.70;99.90;;;;;;5070967;28;20017;-72
2023/01/13 21:57:45;;;;;;;5.03;1.80;;;6.50;99.90;;;;;;5064277;28;20032;-71
2023/01/13 22:00:11;;;;;;;6.72;1.60;;;6.50;99.90;;;;;;5062028;28;20076;-69
2023/01/13 22:02:37;;;;;;;5.25;1.70;;;6.50;99.90;;;;;;5071749;28;20103;-71
2023/01/13 22:05:06;;;;;;;4.78;1.63;;;6.50;99.90;;;;;;5072581;28;20435;-70
2023/01/13 22:07:33;;;;;;;6.78;1.60;;;6.50;99.90;;;;;;5067827;28;20032;-71
2023/01/13 22:09:59;;;;;;;8.10;3.03;;;6.50;99.90;;;;;;5053562;28;20041;-69
2023/01/13 22:12:28;;;;;;;6.28;2.40;;;6.50;99.90;;;;;;5052852;28;20021;-70
2023/01/13 22:14:55;;;;;;;5.85;2.75;;;6.50;99.90;;;;;;5052592;28;20032;-71
2023/01/13 22:17:24;;;;;;;3.97;1.60;;;6.50;99.90;;;;;;5067035;28;20016;-69
2023/01/13 22:19:57;;;;;;;6.10;1.70;;;6.50;99.90;;;;;;5067099;28;20028;-71
2023/01/13 22:22:26;;;;;;;5.43;1.45;;;6.50;99.90;;;;;;5051595;28;20020;-71
2023/01/13 22:24:52;;;;;;;4.88;1.70;;;6.50;99.90;;;;;;5052324;28;20037;-71
2023/01/13 22:27:24;;;;;;;5.35;1.88;;;6.50;99.90;;;;;;5064980;28;20248;-72
2023/01/13 22:29:51;;;;;;;;;;;6.40;99.90;;;;;;5057749;28;20451;-71
2023/01/13 22:32:18;;;;;;;6.35;1.40;;;6.40;99.90;;;;;;5055149;28;20277;-69
